Time;durP1;ratioP1;P1;durP2;ratioP2;P2;SDS_P1;SDS_P2;PMS_P1;PMS_P2;Temp;Humidity;BMP_temperature;BMP_pressure;BME280_temperature;BME280_humidity;BME280_pressure;Samples;Min_cycle;Max_cycle;Signal;HPM_P1;HPM_P2
2021/04/05 00:02:15;;;;;;;16.15;8.23;;;;;;;2.66;55.11;99540.89;147642;1147;104492;-71
2021/04/05 00:05:20;;;;;;;15.73;8.97;;;;;;;2.68;55.44;99538.98;147712;1147;104623;-69
2021/04/05 00:08:23;;;;;;;14.33;8.43;;;;;;;2.65;55.87;99528.67;147719;1147;104486;-69
2021/04/05 00:11:26;;;;;;;14.50;8.33;;;;;;;2.63;55.77;99520.87;147638;1147;104526;-73
2021/04/05 00:14:30;;;;;;;13.53;7.53;;;;;;;2.63;56.40;99523.52;147289;1147;104593;-69
2021/04/05 00:17:33;;;;;;;16.62;8.75;;;;;;;2.63;55.87;99514.78;147421;1147;104561;-72
2021/04/05 00:20:39;;;;;;;15.53;8.55;;;;;;;2.61;55.54;99507.00;147685;1146;105042;-70
2021/04/05 00:23:43;;;;;;;16.82;8.45;;;;;;;2.61;55.46;99507.00;147779;1147;104559;-72
2021/04/05 00:26:46;;;;;;;15.30;8.47;;;;;;;2.59;55.88;99503.64;147640;1147;104470;-70
2021/04/05 00:29:50;;;;;;;15.47;8.30;;;;;;;2.58;56.47;99499.36;147623;1147;104563;-71
2021/04/05 00:32:54;;;;;;;15.90;8.28;;;;;;;2.59;55.18;99479.95;147769;1147;104569;-70
2021/04/05 00:35:57;;;;;;;13.30;7.53;;;;;;;2.58;56.48;99480.06;147587;1148;104473;-67
2021/04/05 00:39:01;;;;;;;14.85;8.83;;;;;;;2.57;56.58;99475.77;147592;1147;104453;-67
2021/04/05 00:42:06;;;;;;;14.35;7.33;;;;;;;2.55;55.96;99470.61;147667;1148;104550;-70
2021/04/05 00:45:13;;;;;;;15.50;8.65;;;;;;;2.52;56.58;99455.05;147651;1148;104537;-68
2021/04/05 00:48:17;;;;;;;14.53;7.37;;;;;;;2.49;56.34;99461.40;147431;1147;104552;-69
2021/04/05 00:51:23;;;;;;;15.68;8.53;;;;;;;2.49;55.96;99448.23;147450;1147;104512;-63
2021/04/05 00:54:27;;;;;;;16.73;8.80;;;;;;;2.47;56.25;99441.42;147429;1146;104873;-71
2021/04/05 00:57:30;;;;;;;17.03;8.53;;;;;;;2.44;56.42;99437.22;147601;1147;104527;-68
2021/04/05 01:00:38;;;;;;;14.47;8.93;;;;;;;2.45;56.11;99432.81;147681;1147;104641;-69
2021/04/05 01:03:44;;;;;;;15.50;8.58;;;;;;;2.43;55.54;99429.47;147402;1147;104554;-66
2021/04/05 01:06:47;;;;;;;15.28;8.45;;;;;;;2.42;55.93;99419.88;147141;1147;104489;-70
2021/04/05 01:09:50;;;;;;;15.80;8.53;;;;;;;2.40;56.63;99408.63;147448;1147;104461;-69
2021/04/05 01:12:53;;;;;;;15.63;8.85;;;;;;;2.40;55.64;99403.37;147604;1147;104531;-67
2021/04/05 01:15:57;;;;;;;15.20;7.80;;;;;;;2.38;56.83;99397.39;147465;1147;104863;-70
2021/04/05 01:19:01;;;;;;;18.42;10.08;;;;;;;2.36;56.31;99393.06;147542;1148;104462;-69
2021/04/05 01:22:06;;;;;;;13.40;7.43;;;;;;;2.34;56.30;99389.72;147602;1147;104547;-68
2021/04/05 01:25:15;;;;;;;14.68;8.75;;;;;;;2.34;56.17;99375.73;147595;1147;104495;-67
2021/04/05 01:28:19;;;;;;;13.85;8.10;;;;;;;2.32;55.83;99375.84;147358;1147;104588;-68
2021/04/05 01:31:22;;;;;;;17.32;9.20;;;;;;;2.33;55.64;99361.73;147317;1147;104612;-68
2021/04/05 01:34:25;;;;;;;14.98;7.45;;;;;;;2.31;56.71;99358.39;147474;1147;104908;-70
2021/04/05 01:37:28;;;;;;;16.37;8.60;;;;;;;2.31;55.87;99358.39;147635;1147;104470;-70
2021/04/05 01:40:34;;;;;;;14.75;7.83;;;;;;;2.28;55.66;99353.36;147571;1147;104550;-67
2021/04/05 01:43:38;;;;;;;15.98;8.38;;;;;;;2.26;56.86;99344.75;147597;1147;104852;-72
2021/04/05 01:46:41;;;;;;;13.88;7.67;;;;;;;2.25;56.10;99350.99;147572;1147;104594;-68
2021/04/05 01:49:45;;;;;;;15.72;8.28;;;;;;;2.26;56.72;99349.19;147617;1147;104504;-68
2021/04/05 01:52:48;;;;;;;14.13;7.60;;;;;;;2.23;56.37;99339.72;147594;1147;104969;-70
2021/04/05 01:55:52;;;;;;;16.00;8.35;;;;;;;2.23;56.37;99337.09;147642;1147;104461;-70
2021/04/05 01:58:56;;;;;;;12.93;7.50;;;;;;;2.21;56.37;99333.74;147459;1146;104473;-71
2021/04/05 02:01:59;;;;;;;14.58;8.55;;;;;;;2.22;56.31;99324.91;147283;1146;104454;-68
2021/04/05 02:05:05;;;;;;;15.28;7.92;;;;;;;2.22;57.05;99327.53;147505;1148;104577;-69
2021/04/05 02:08:09;;;;;;;15.53;8.35;;;;;;;2.21;57.21;99317.95;147638;1147;104966;-70
2021/04/05 02:11:14;;;;;;;14.03;7.43;;;;;;;2.18;56.66;99312.95;147337;1147;104476;-70
2021/04/05 02:14:17;;;;;;;16.60;8.68;;;;;;;2.15;56.69;99315.81;147640;1147;104539;-73
2021/04/05 02:17:21;;;;;;;14.40;7.20;;;;;;;2.15;56.52;99313.19;147618;1147;104620;-72
2021/04/05 02:20:24;;;;;;;16.03;8.53;;;;;;;2.13;56.33;99301.95;147792;1147;104855;-71
2021/04/05 02:23:28;;;;;;;14.87;7.70;;;;;;;2.10;57.22;99292.52;147528;1147;104473;-74
2021/04/05 02:26:34;;;;;;;14.50;8.40;;;;;;;2.11;57.55;99288.91;147788;1147;104525;-69
2021/04/05 02:29:37;;;;;;;16.17;8.43;;;;;;;2.10;57.01;99275.90;147656;1147;104538;-70
2021/04/05 02:32:41;;;;;;;17.73;8.80;;;;;;;2.10;57.42;99265.38;147420;1147;104586;-69
2021/04/05 02:35:44;;;;;;;16.45;8.85;;;;;;;2.08;56.69;99265.48;147589;1147;104570;-70
2021/04/05 02:38:49;;;;;;;16.60;8.90;;;;;;;2.08;56.83;99260.22;147746;1147;104513;-70
2021/04/05 02:41:54;;;;;;;14.85;7.92;;;;;;;2.08;57.32;99251.47;147775;1147;104481;-71
2021/04/05 02:44:57;;;;;;;15.75;8.83;;;;;;;2.08;56.87;99254.10;147600;1146;104496;-74
2021/04/05 02:48:03;;;;;;;13.60;7.45;;;;;;;2.06;57.79;99243.73;147142;1147;104586;-70
2021/04/05 02:51:09;;;;;;;15.75;8.85;;;;;;;2.08;58.39;99243.58;147241;1147;104549;-71
2021/04/05 02:54:13;;;;;;;14.95;8.95;;;;;;;2.06;57.21;99232.34;147568;1147;104535;-71
2021/04/05 02:57:17;;;;;;;15.33;8.93;;;;;;;2.05;56.95;99226.25;147829;1147;104579;-71
2021/04/05 03:00:22;;;;;;;15.18;8.53;;;;;;;2.04;58.14;99207.95;147727;1147;104544;-70
2021/04/05 03:03:25;;;;;;;16.15;9.58;;;;;;;2.03;58.02;99203.67;147678;1147;104546;-70
2021/04/05 03:06:30;;;;;;;17.42;8.55;;;;;;;2.02;58.36;99194.95;147471;1147;104535;-70
2021/04/05 03:09:33;;;;;;;15.90;8.73;;;;;;;2.01;57.66;99185.37;147498;1147;104454;-70
2021/04/05 03:12:37;;;;;;;19.07;9.35;;;;;;;1.99;57.58;99187.29;147675;1147;104966;-71
2021/04/05 03:15:41;;;;;;;17.92;9.63;;;;;;;1.97;57.95;99178.69;147707;1147;104594;-71
2021/04/05 03:18:46;;;;;;;17.77;9.30;;;;;;;1.95;57.33;99170.09;147603;1146;104636;-72
2021/04/05 03:21:50;;;;;;;18.07;9.43;;;;;;;1.94;57.80;99166.62;147534;1147;104550;-71
2021/04/05 03:24:53;;;;;;;17.73;9.18;;;;;;;1.91;58.33;99161.61;147416;1147;104500;-72
2021/04/05 03:27:56;;;;;;;16.23;9.55;;;;;;;1.91;58.14;99158.15;147574;1147;104547;-71
2021/04/05 03:31:05;;;;;;;18.40;9.73;;;;;;;1.90;58.44;99146.77;147233;1147;104480;-71
2021/04/05 03:34:14;;;;;;;17.23;9.73;;;;;;;1.89;58.72;99131.14;147483;1147;104522;-72
2021/04/05 03:37:19;;;;;;;18.35;9.78;;;;;;;1.88;59.02;99134.71;147458;1148;104973;-69
2021/04/05 03:40:23;;;;;;;18.23;10.10;;;;;;;1.86;59.38;99126.94;147527;1147;104537;-70
2021/04/05 03:43:31;;;;;;;17.52;10.23;;;;;;;1.85;58.51;99114.77;147594;1147;104497;-69
2021/04/05 03:46:45;;;;;;;16.05;8.45;;;;;;;1.86;57.97;99102.44;147608;1147;104452;-71
2021/04/05 03:49:55;;;;;;;17.90;9.78;;;;;;;1.86;58.26;99100.63;147371;1146;104875;-69
2021/04/05 03:53:08;;;;;;;19.98;9.78;;;;;;;1.84;58.41;99097.30;147487;1147;104547;-71
2021/04/05 03:56:15;;;;;;;19.03;10.40;;;;;;;1.85;58.20;99098.12;147290;1146;104595;-70
2021/04/05 03:59:24;;;;;;;18.60;9.90;;;;;;;1.85;58.65;99082.34;147102;1146;104433;-71
2021/04/05 04:02:33;;;;;;;18.92;10.35;;;;;;;1.86;59.02;99073.50;147545;1146;104972;-73
2021/04/05 04:05:41;;;;;;;19.23;10.73;;;;;;;1.87;58.19;99073.38;147698;1148;104589;-72
2021/04/05 04:08:47;;;;;;;19.93;10.80;;;;;;;1.90;58.49;99059.13;147731;1146;104866;-69
2021/04/05 04:11:52;;;;;;;22.17;10.95;;;;;;;1.90;58.59;99062.59;147566;1147;104551;-72
2021/04/05 04:14:57;;;;;;;20.25;10.90;;;;;;;1.92;58.78;99057.20;147660;1147;104463;-70
2021/04/05 04:18:02;;;;;;;22.90;12.47;;;;;;;1.92;58.63;99044.88;147626;1147;104469;-70
2021/04/05 04:21:08;;;;;;;19.75;9.40;;;;;;;1.91;58.34;99034.52;147711;1148;104617;-73
2021/04/05 04:24:12;;;;;;;23.12;12.68;;;;;;;1.92;58.45;99005.42;147728;1147;104593;-71
2021/04/05 04:27:16;;;;;;;19.15;10.78;;;;;;;1.94;58.04;98998.27;147683;1147;104473;-70
2021/04/05 04:30:32;;;;;;;23.32;13.08;;;;;;;1.98;58.83;98987.47;147756;1147;104561;-72
2021/04/05 04:33:35;;;;;;;22.90;12.90;;;;;;;2.03;58.43;98994.01;147600;1147;104460;-70
2021/04/05 04:36:38;;;;;;;23.45;13.03;;;;;;;2.08;58.89;98986.57;147445;1146;104726;-72
2021/04/05 04:39:42;;;;;;;21.37;12.55;;;;;;;2.17;58.18;98987.57;147987;1147;104556;-70
2021/04/05 04:42:45;;;;;;;24.95;12.53;;;;;;;2.27;59.27;98983.21;147703;1148;104569;-70
2021/04/05 04:45:49;;;;;;;22.37;12.68;;;;;;;2.35;58.91;98980.74;147641;1147;104550;-69
2021/04/05 04:48:56;;;;;;;21.23;12.33;;;;;;;2.40;58.43;98966.34;147682;1147;104475;-67
2021/04/05 04:52:00;;;;;;;24.37;12.28;;;;;;;2.49;57.99;98962.92;147611;1147;104547;-69
2021/04/05 04:55:04;;;;;;;23.92;12.35;;;;;;;2.59;59.04;98960.31;147688;1147;104550;-70
2021/04/05 04:58:08;;;;;;;20.30;11.48;;;;;;;2.64;58.58;98961.58;147718;1147;104546;-72
2021/04/05 05:01:12;;;;;;;25.77;13.30;;;;;;;2.74;59.14;98957.16;147649;1146;104546;-72
2021/04/05 05:04:20;;;;;;;19.33;11.40;;;;;;;2.81;58.13;98953.98;147561;1147;104492;-69
2021/04/05 05:07:24;;;;;;;21.75;12.82;;;;;;;2.91;58.81;98944.31;147582;1148;104619;-70
2021/04/05 05:10:28;;;;;;;24.33;13.23;;;;;;;2.94;57.94;98944.03;147680;1147;104526;-69
2021/04/05 05:13:31;;;;;;;26.33;13.33;;;;;;;3.03;59.01;98939.75;147452;1146;104454;-70
2021/04/05 05:16:37;;;;;;;22.10;13.10;;;;;;;3.11;57.51;98940.71;147626;1147;104506;-69
2021/04/05 05:19:43;;;;;;;22.32;12.45;;;;;;;3.24;57.91;98929.91;147671;1147;104930;-70
2021/04/05 05:22:50;;;;;;;22.50;13.45;;;;;;;3.35;57.38;98934.22;147667;1147;104620;-70
2021/04/05 05:25:55;;;;;;;23.10;13.30;;;;;;;3.42;57.83;98921.30;147640;1147;104651;-69
2021/04/05 05:29:03;;;;;;;23.92;13.65;;;;;;;3.44;57.77;98911.44;147685;1147;104553;-72
2021/04/05 05:32:08;;;;;;;27.67;14.40;;;;;;;3.49;57.79;98911.86;147691;1147;104474;-69
2021/04/05 05:35:13;;;;;;;26.82;14.75;;;;;;;3.52;57.71;98899.22;147641;1148;104561;-74
2021/04/05 05:38:17;;;;;;;26.75;14.35;;;;;;;3.61;58.23;98894.89;147608;1147;104534;-69
2021/04/05 05:41:40;;;;;;;26.02;14.53;;;;;;;3.67;58.42;98891.67;147494;1148;104539;-73
2021/04/05 05:44:53;;;;;;;24.45;13.85;;;;;;;3.73;58.25;98877.08;147685;1147;104456;-67
2021/04/05 05:48:05;;;;;;;23.98;13.43;;;;;;;3.87;57.68;98874.00;147668;1147;104886;-69
2021/04/05 05:51:11;;;;;;;;;;;;;;;4.02;57.72;98865.59;147204;1147;104566;-69
2021/04/05 05:54:37;;;;;;;22.77;13.33;;;;;;;4.13;57.08;98868.05;147412;1147;104617;-69
2021/04/05 05:57:45;;;;;;;24.93;13.70;;;;;;;4.21;56.79;98857.58;147666;1147;104509;-74
2021/04/05 06:00:57;;;;;;;23.35;14.10;;;;;;;4.30;56.58;98854.06;147711;1145;104537;-70
2021/04/05 06:04:06;;;;;;;23.00;13.50;;;;;;;4.40;57.19;98848.73;147602;1147;104564;-71
2021/04/05 06:07:20;;;;;;;23.43;13.47;;;;;;;4.50;57.12;98843.38;147552;1147;104492;-66
2021/04/05 06:10:31;;;;;;;24.45;13.72;;;;;;;4.58;56.78;98840.00;147648;1147;104633;-69
2021/04/05 06:13:44;;;;;;;21.20;13.28;;;;;;;4.62;56.22;98836.92;147680;1148;104547;-71
2021/04/05 06:17:00;;;;;;;20.23;12.40;;;;;;;4.66;57.19;98838.28;147737;1148;104551;-70
2021/04/05 06:20:16;;;;;;;23.40;12.75;;;;;;;4.72;57.29;98821.82;147598;1147;104529;-68
2021/04/05 06:23:37;;;;;;;20.25;12.28;;;;;;;4.79;57.05;98815.92;147527;1148;104547;-72
2021/04/05 06:26:51;;;;;;;28.57;16.93;;;;;;;4.88;56.70;98815.84;147780;1146;104556;-73
2021/04/05 06:30:08;;;;;;;20.97;12.67;;;;;;;4.96;56.83;98807.15;147366;1147;104541;-71
2021/04/05 06:33:19;;;;;;;22.45;12.23;;;;;;;5.04;56.39;98807.23;147697;1147;104469;-76
2021/04/05 06:36:34;;;;;;;21.90;13.20;;;;;;;5.15;56.42;98794.75;147735;1147;104479;-78
2021/04/05 06:39:43;;;;;;;27.13;17.53;;;;;;;5.24;56.72;98789.36;147784;1147;104491;-75
2021/04/05 06:43:08;;;;;;;22.50;11.70;;;;;;;5.33;55.92;98771.71;147803;1147;104617;-73
2021/04/05 06:46:28;;;;;;;38.60;24.15;;;;;;;5.41;56.28;98771.78;147806;1146;104479;-71
2021/04/05 06:50:03;;;;;;;39.13;22.75;;;;;;;5.53;55.55;98769.70;147773;1147;104911;-72
2021/04/05 06:53:29;;;;;;;36.88;22.80;;;;;;;5.59;54.66;98763.77;147740;1147;104551;-73
2021/04/05 06:56:44;;;;;;;20.57;11.93;;;;;;;5.65;55.53;98757.02;147842;1147;104513;-76
2021/04/05 07:00:01;;;;;;;18.67;11.65;;;;;;;5.77;56.15;98746.97;147772;1147;104713;-73
2021/04/05 07:03:28;;;;;;;15.55;9.80;;;;;;;5.92;55.16;98745.38;147778;1147;104521;-72
2021/04/05 07:06:51;;;;;;;15.85;9.38;;;;;;;6.10;55.27;98753.23;147500;1147;104473;-74
2021/04/05 07:10:02;;;;;;;14.18;8.73;;;;;;;6.37;54.46;98753.95;147674;1148;104859;-73
2021/04/05 07:13:16;;;;;;;13.43;8.97;;;;;;;6.56;54.55;98737.75;147768;1147;104546;-73
2021/04/05 07:16:30;;;;;;;14.40;9.70;;;;;;;6.54;54.63;98729.13;147760;1147;104610;-73
2021/04/05 07:19:48;;;;;;;83.80;40.58;;;;;;;6.55;54.98;98728.16;147579;1147;104483;-72
2021/04/05 07:22:59;;;;;;;27.95;13.00;;;;;;;6.58;53.91;98713.73;147770;1147;104587;-75
2021/04/05 07:26:15;;;;;;;98.25;47.53;;;;;;;6.71;54.45;98718.55;147761;1147;104535;-74
2021/04/05 07:29:25;;;;;;;101.58;46.35;;;;;;;6.86;54.26;98696.50;147377;1147;104586;-75
2021/04/05 07:32:36;;;;;;;22.62;12.98;;;;;;;7.01;53.48;98685.22;147474;1146;104383;-75
2021/04/05 07:35:47;;;;;;;18.55;11.00;;;;;;;7.17;54.01;98676.39;147765;1146;104604;-73
2021/04/05 07:39:06;;;;;;;37.25;19.77;;;;;;;7.31;53.86;98672.20;147768;1147;104455;-75
2021/04/05 07:42:15;;;;;;;12.55;8.05;;;;;;;7.43;53.96;98666.36;147771;1146;104470;-75
2021/04/05 07:45:30;;;;;;;31.90;21.93;;;;;;;7.59;54.53;98654.02;147501;1147;104546;-77
2021/04/05 07:48:36;;;;;;;14.58;8.55;;;;;;;7.76;54.44;98650.27;147750;1147;104596;-73
2021/04/05 07:51:49;;;;;;;13.67;9.37;;;;;;;7.90;52.35;98647.88;147791;1147;104455;-75
2021/04/05 07:54:52;;;;;;;18.23;11.97;;;;;;;7.97;52.36;98652.31;147637;1147;104467;-78
2021/04/05 07:58:10;;;;;;;13.13;8.80;;;;;;;8.09;53.04;98647.41;147673;1146;104461;-80
2021/04/05 08:01:25;;;;;;;13.72;7.00;;;;;;;8.28;52.96;98651.43;147703;1147;104495;-78
2021/04/05 08:04:45;;;;;;;17.30;12.07;;;;;;;8.41;52.51;98634.86;147761;1147;104623;-83
2021/04/05 08:08:06;;;;;;;15.50;9.40;;;;;;;8.53;52.49;98622.84;147617;1147;104489;-77
2021/04/05 08:11:45;;;;;;;12.47;7.30;;;;;;;8.67;52.14;98607.92;147583;1147;104534;-76
2021/04/05 08:15:02;;;;;;;50.95;31.62;;;;;;;8.84;52.65;98605.93;147675;1147;104512;-75
2021/04/05 08:18:15;;;;;;;37.85;18.25;;;;;;;8.98;52.53;98591.80;147677;1146;104470;-76
2021/04/05 08:21:22;;;;;;;16.90;10.27;;;;;;;9.03;52.07;98589.41;147643;1147;104621;-77
2021/04/05 08:24:36;;;;;;;11.70;7.95;;;;;;;9.11;51.29;98574.38;147879;1146;104490;-76
2021/04/05 08:27:50;;;;;;;14.98;9.00;;;;;;;9.20;52.25;98567.95;147678;1146;104543;-76
2021/04/05 08:31:10;;;;;;;9.98;6.80;;;;;;;9.37;51.74;98560.55;147711;1147;104447;-75
2021/04/05 08:34:30;;;;;;;10.10;6.50;;;;;;;9.57;51.25;98555.47;147870;1147;104464;-76
2021/04/05 08:37:44;;;;;;;9.15;6.78;;;;;;;9.72;51.06;98534.09;147867;1147;104716;-77
2021/04/05 08:40:59;;;;;;;9.80;6.87;;;;;;;9.81;51.42;98539.13;147890;1146;104588;-74
2021/04/05 08:44:13;;;;;;;10.58;6.45;;;;;;;9.95;50.55;98517.91;147739;1147;104540;-73
2021/04/05 08:47:21;;;;;;;10.30;6.85;;;;;;;9.99;50.58;98512.02;147488;1146;104553;-77
2021/04/05 08:50:28;;;;;;;10.95;6.87;;;;;;;9.98;50.54;98502.37;147733;1147;104482;-73
2021/04/05 08:53:33;;;;;;;10.17;6.50;;;;;;;10.06;48.60;98488.08;147767;1146;104709;-76
2021/04/05 08:56:41;;;;;;;8.67;6.30;;;;;;;10.18;48.34;98480.38;147761;1147;104474;-74
2021/04/05 08:59:50;;;;;;;9.15;6.55;;;;;;;10.32;49.45;98481.34;147797;1146;104492;-73
2021/04/05 09:02:56;;;;;;;10.60;7.42;;;;;;;10.58;50.59;98494.81;147415;1147;104495;-77
2021/04/05 09:06:03;;;;;;;12.97;8.53;;;;;;;10.85;49.41;98486.95;147853;1147;104498;-76
2021/04/05 09:09:11;;;;;;;12.78;8.70;;;;;;;11.04;48.09;98480.06;147781;1147;104908;-76
2021/04/05 09:12:15;;;;;;;10.20;7.15;;;;;;;11.22;49.88;98476.01;147766;1148;104547;-75
2021/04/05 09:15:54;;;;;;;22.17;16.48;;;;;;;11.36;49.77;98467.84;147748;1147;104465;-75
2021/04/05 09:19:23;;;;;;;12.20;7.90;;;;;;;11.40;48.61;98441.55;147818;1147;104573;-74
2021/04/05 09:22:59;;;;;;;10.10;6.75;;;;;;;11.51;49.28;98432.10;147773;1147;104463;-76
2021/04/05 09:26:24;;;;;;;10.78;5.92;;;;;;;11.67;49.22;98429.05;147747;1147;104536;-74
2021/04/05 09:29:48;;;;;;;17.82;10.65;;;;;;;11.71;47.53;98424.13;147792;1147;104496;-75
2021/04/05 09:33:23;;;;;;;17.42;11.88;;;;;;;11.78;47.59;98417.75;147813;1147;104466;-77
2021/04/05 09:37:06;;;;;;;12.47;8.63;;;;;;;11.91;48.37;98416.96;147562;1147;104539;-75
2021/04/05 09:40:32;;;;;;;27.35;20.12;;;;;;;12.03;48.82;98411.80;147314;1146;104466;-77
2021/04/05 09:44:19;;;;;;;10.90;7.12;;;;;;;12.05;46.60;98416.92;147628;1147;104563;-74
2021/04/05 09:47:40;;;;;;;11.22;6.87;;;;;;;12.11;47.89;98395.53;147626;1147;104534;-76
2021/04/05 09:51:25;;;;;;;11.47;6.07;;;;;;;12.24;47.40;98392.02;147799;1147;104543;-71
2021/04/05 09:54:35;;;;;;;11.33;6.10;;;;;;;12.30;46.72;98382.34;148024;1147;104518;-70
2021/04/05 09:57:41;;;;;;;9.73;5.80;;;;;;;12.32;47.45;98377.60;147745;1146;104500;-71
2021/04/05 10:00:51;;;;;;;8.35;5.70;;;;;;;12.26;45.81;98383.77;147289;1147;104581;-70
2021/04/05 10:03:59;;;;;;;7.35;5.33;;;;;;;12.22;47.02;98388.73;148027;1146;104563;-71
2021/04/05 10:07:05;;;;;;;9.33;5.50;;;;;;;12.20;47.24;98387.28;147624;1147;104461;-70
2021/04/05 10:10:12;;;;;;;9.77;5.70;;;;;;;12.24;47.62;98375.14;147342;1148;104479;-71
2021/04/05 10:13:18;;;;;;;9.30;6.10;;;;;;;12.37;47.37;98359.05;147408;1147;104519;-70
2021/04/05 10:16:23;;;;;;;31.63;15.33;;;;;;;12.46;46.05;98349.77;147381;1148;104593;-70
2021/04/05 10:19:31;;;;;;;178.40;87.25;;;;;;;12.51;46.17;98330.39;147365;1147;104543;-73
2021/04/05 10:22:42;;;;;;;19.10;11.33;;;;;;;12.58;45.82;98332.00;147696;1147;104521;-72
2021/04/05 10:25:46;;;;;;;38.48;21.95;;;;;;;12.69;45.91;98321.67;147683;1146;104494;-70
2021/04/05 10:28:53;;;;;;;15.80;9.53;;;;;;;12.70;46.10;98334.84;147703;1147;104472;-71
2021/04/05 10:31:58;;;;;;;15.03;9.23;;;;;;;12.63;45.39;98323.35;147427;1146;104602;-70
2021/04/05 10:35:03;;;;;;;10.25;7.08;;;;;;;12.58;45.78;98320.48;147683;1148;104546;-71
2021/04/05 10:38:07;;;;;;;12.00;6.10;;;;;;;12.66;45.63;98306.84;147644;1147;104475;-72
2021/04/05 10:41:13;;;;;;;17.85;9.05;;;;;;;12.75;45.58;98304.76;147685;1147;104549;-70
2021/04/05 10:44:18;;;;;;;15.30;9.07;;;;;;;12.74;44.79;98287.05;147418;1147;104467;-70
2021/04/05 10:47:26;;;;;;;23.47;12.67;;;;;;;12.76;44.96;98285.00;147517;1148;104598;-70
2021/04/05 10:50:33;;;;;;;99.77;53.78;;;;;;;12.85;45.53;98277.52;147369;1147;105095;-70
2021/04/05 10:53:40;;;;;;;57.55;34.92;;;;;;;12.99;44.67;98267.53;147187;1146;104531;-70
2021/04/05 10:56:50;;;;;;;31.73;20.57;;;;;;;13.16;44.88;98271.30;147416;1147;104441;-70
2021/04/05 10:59:56;;;;;;;16.02;11.08;;;;;;;13.30;44.66;98270.20;147469;1147;104547;-71
2021/04/05 11:03:07;;;;;;;10.23;5.87;;;;;;;13.41;44.04;98259.80;147610;1148;104627;-71
2021/04/05 11:06:14;;;;;;;11.38;6.03;;;;;;;13.48;42.41;98258.70;147540;1147;104496;-71
2021/04/05 11:09:19;;;;;;;13.03;5.75;;;;;;;13.57;43.55;98240.48;147711;1147;104855;-70
2021/04/05 11:12:23;;;;;;;9.33;4.90;;;;;;;13.78;44.22;98243.75;147473;1147;104452;-71
2021/04/05 11:15:29;;;;;;;10.90;4.95;;;;;;;13.91;43.28;98232.87;147499;1148;104563;-72
2021/04/05 11:18:32;;;;;;;11.00;5.80;;;;;;;13.99;43.55;98237.97;147636;1147;104616;-71
2021/04/05 11:21:39;;;;;;;11.30;5.15;;;;;;;13.93;41.87;98233.47;147606;1147;104467;-71
2021/04/05 11:24:44;;;;;;;10.15;5.60;;;;;;;13.83;42.72;98230.52;147502;1147;104534;-71
2021/04/05 11:27:51;;;;;;;9.20;4.83;;;;;;;13.77;42.72;98221.50;147445;1147;104460;-70
2021/04/05 11:31:03;;;;;;;10.27;5.50;;;;;;;13.66;42.76;98219.55;147491;1147;104501;-70
2021/04/05 11:34:08;;;;;;;10.63;6.03;;;;;;;13.63;43.13;98215.47;147573;1147;104538;-73
2021/04/05 11:37:14;;;;;;;9.10;5.40;;;;;;;13.54;43.76;98203.41;147399;1147;104475;-70
2021/04/05 11:40:20;;;;;;;11.48;5.33;;;;;;;13.44;43.37;98195.07;147200;1147;104589;-70
2021/04/05 11:43:29;;;;;;;9.55;5.10;;;;;;;13.41;43.79;98200.86;147281;1147;104554;-71
2021/04/05 11:46:36;;;;;;;9.55;4.90;;;;;;;13.44;43.71;98211.14;147480;1146;104864;-71
2021/04/05 11:49:40;;;;;;;11.03;5.08;;;;;;;13.38;42.77;98198.64;147276;1148;104618;-72
2021/04/05 11:52:51;;;;;;;9.55;5.28;;;;;;;13.31;43.00;98202.19;147290;1147;104419;-72
2021/04/05 11:56:04;;;;;;;9.20;4.87;;;;;;;13.27;42.72;98198.28;147273;1147;104543;-71
2021/04/05 11:59:14;;;;;;;9.45;4.80;;;;;;;13.38;43.60;98198.64;147321;1147;104937;-71
2021/04/05 12:02:22;;;;;;;10.03;4.92;;;;;;;13.56;42.45;98190.60;147447;1148;104532;-71
2021/04/05 12:05:30;;;;;;;8.73;4.70;;;;;;;13.68;42.12;98186.16;147245;1147;104642;-71
2021/04/05 12:08:40;;;;;;;9.55;4.90;;;;;;;13.68;42.67;98174.59;147224;1148;104505;-71
2021/04/05 12:11:47;;;;;;;8.97;5.17;;;;;;;13.64;42.44;98168.05;147614;1147;104546;-70
2021/04/05 12:14:54;;;;;;;8.73;5.12;;;;;;;13.71;43.02;98166.11;147612;1148;104423;-71
2021/04/05 12:17:59;;;;;;;9.33;5.70;;;;;;;13.77;42.73;98169.77;147652;1147;104460;-71
2021/04/05 12:21:08;;;;;;;9.38;5.05;;;;;;;13.74;43.08;98166.48;147692;1147;104512;-72
2021/04/05 12:24:12;;;;;;;9.48;5.28;;;;;;;13.74;42.26;98163.81;147427;1148;104628;-70
2021/04/05 12:27:17;;;;;;;11.20;5.37;;;;;;;13.72;42.41;98152.50;147478;1147;104464;-71
2021/04/05 12:30:28;;;;;;;7.95;4.70;;;;;;;13.70;42.35;98145.70;147615;1147;104433;-70
2021/04/05 12:33:34;;;;;;;8.13;4.67;;;;;;;13.68;41.43;98126.35;147659;1146;104527;-71
2021/04/05 12:36:40;;;;;;;7.77;4.50;;;;;;;13.67;42.58;98120.18;147707;1147;104545;-70
2021/04/05 12:39:45;;;;;;;8.63;4.90;;;;;;;13.65;42.59;98105.38;147486;1147;104455;-71
2021/04/05 12:42:49;;;;;;;11.43;5.03;;;;;;;13.60;42.35;98113.27;147278;1147;104560;-71
2021/04/05 12:45:55;;;;;;;7.37;5.03;;;;;;;13.58;41.69;98110.81;147263;1147;104491;-69
2021/04/05 12:49:01;;;;;;;9.88;5.22;;;;;;;13.55;42.16;98116.63;148615;1147;104547;-71
2021/04/05 12:52:06;;;;;;;8.23;4.90;;;;;;;13.54;42.48;98112.30;147523;1146;104655;-70
2021/04/05 12:55:13;;;;;;;10.08;4.47;;;;;;;13.51;42.04;98107.38;147354;1147;104498;-70
2021/04/05 12:58:17;;;;;;;10.23;5.00;;;;;;;13.46;42.49;98104.58;147551;1146;104524;-71
2021/04/05 13:01:27;;;;;;;13.87;5.63;;;;;;;13.48;42.56;98099.81;147316;1147;104473;-71
2021/04/05 13:04:34;;;;;;;9.65;5.62;;;;;;;13.46;41.83;98096.55;147460;1148;104550;-70
2021/04/05 13:07:47;;;;;;;8.95;5.05;;;;;;;13.44;42.00;98096.77;147311;1148;104732;-73
2021/04/05 13:10:57;;;;;;;9.83;5.40;;;;;;;13.38;42.29;98092.30;147700;1147;104835;-70
2021/04/05 13:14:03;;;;;;;7.97;4.50;;;;;;;13.37;42.26;98071.09;147707;1146;104543;-70
2021/04/05 13:17:10;;;;;;;8.53;4.90;;;;;;;13.43;41.59;98073.68;147736;1145;104477;-70
2021/04/05 13:20:18;;;;;;;10.78;4.55;;;;;;;13.48;41.90;98075.70;147688;1147;104588;-70
2021/04/05 13:23:25;;;;;;;8.38;4.40;;;;;;;13.53;42.21;98071.30;147742;1147;104521;-70
2021/04/05 13:26:33;;;;;;;9.00;4.45;;;;;;;13.60;42.25;98089.16;147831;1148;104546;-71
2021/04/05 13:29:38;;;;;;;11.35;6.03;;;;;;;13.58;41.34;98078.66;147657;1147;104467;-70
2021/04/05 13:32:43;;;;;;;10.23;4.75;;;;;;;13.46;41.92;98075.92;147543;1146;104562;-71
2021/04/05 13:35:47;;;;;;;11.57;5.45;;;;;;;13.36;40.68;98086.36;147654;1147;104547;-73
2021/04/05 13:38:59;;;;;;;12.40;4.75;;;;;;;13.21;40.42;98032.33;147448;1147;104948;-71
2021/04/05 13:42:04;;;;;;;;;;;;;;;13.06;40.50;98028.16;147700;1146;104525;-70
2021/04/05 13:45:12;;;;;;;9.33;4.70;;;;;;;12.97;41.09;98018.78;147396;1148;104451;-71
2021/04/05 13:48:22;;;;;;;136.63;93.13;;;;;;;12.96;41.12;98028.68;147409;1147;104555;-71
2021/04/05 13:51:28;;;;;;;44.67;31.30;;;;;;;12.98;40.49;98035.69;147537;1147;104895;-71
2021/04/05 13:54:35;;;;;;;63.37;42.37;;;;;;;12.96;40.23;98034.03;147516;1147;104902;-73
2021/04/05 13:57:42;;;;;;;162.77;96.63;;;;;;;12.94;40.15;98030.77;147416;1147;104515;-71
2021/04/05 14:00:48;;;;;;;89.80;49.50;;;;;;;12.91;41.25;98019.68;147333;1147;104474;-67
2021/04/05 14:03:54;;;;;;;57.45;35.40;;;;;;;12.89;39.35;98019.09;147306;1147;104454;-69
2021/04/05 14:07:00;;;;;;;56.37;42.03;;;;;;;12.88;40.76;98010.25;147351;1146;104476;-70
2021/04/05 14:10:06;;;;;;;39.85;28.45;;;;;;;12.89;40.32;98008.38;147455;1147;104653;-69
2021/04/05 14:13:13;;;;;;;65.08;49.83;;;;;;;12.83;40.32;98010.09;147207;1147;104799;-71
2021/04/05 14:16:20;;;;;;;45.67;29.52;;;;;;;12.74;40.04;98004.23;147571;1147;104566;-71
2021/04/05 14:19:29;;;;;;;27.37;20.55;;;;;;;12.65;40.65;98010.09;148791;1146;104476;-71
2021/04/05 14:22:36;;;;;;;33.50;21.02;;;;;;;12.60;40.82;98001.91;147663;1146;104829;-70